createdAt,value
2018-06-12T00:00:21.828Z,15.73
2018-06-12T00:02:51.602Z,16.03
2018-06-12T00:05:21.519Z,15.93
2018-06-12T00:07:51.053Z,16.37
2018-06-12T00:10:20.673Z,16.57
2018-06-12T00:12:50.656Z,16.90
2018-06-12T00:15:20.164Z,18.10
2018-06-12T00:17:49.653Z,18.50
2018-06-12T00:20:19.005Z,18.57
2018-06-12T00:22:48.317Z,18.83
2018-06-12T00:25:18.609Z,17.83
2018-06-12T00:27:48.233Z,17.93
2018-06-12T00:30:17.528Z,17.00
2018-06-12T00:32:47.648Z,17.97
2018-06-12T00:35:19.168Z,17.00
2018-06-12T00:37:48.749Z,16.40
2018-06-12T00:40:20.190Z,15.57
2018-06-12T00:42:49.512Z,15.53
2018-06-12T00:45:18.912Z,15.10
2018-06-12T00:47:48.546Z,13.93
2018-06-12T00:50:18.548Z,13.10
2018-06-12T00:52:49.218Z,13.40
2018-06-12T00:55:19.186Z,13.40
2018-06-12T00:57:49.070Z,12.50
2018-06-12T01:00:18.704Z,12.70
2018-06-12T01:02:48.573Z,13.57
2018-06-12T01:05:18.141Z,12.80
2018-06-12T01:10:25.078Z,12.40
2018-06-12T01:12:54.466Z,13.43
2018-06-12T01:15:30.450Z,12.73
2018-06-12T01:18:01.324Z,13.67
2018-06-12T01:20:31.788Z,12.60
2018-06-12T01:23:01.849Z,13.53
2018-06-12T01:25:31.274Z,12.10
2018-06-12T01:28:00.520Z,12.30
2018-06-12T01:30:30.865Z,12.90
2018-06-12T01:33:00.251Z,14.00
2018-06-12T01:35:29.813Z,12.90
2018-06-12T01:38:00.283Z,14.90
2018-06-12T01:40:30.789Z,13.87
2018-06-12T01:43:01.106Z,14.10
2018-06-12T01:45:31.369Z,14.43
2018-06-12T01:48:01.521Z,14.83
2018-06-12T01:50:33.053Z,16.07
2018-06-12T01:53:03.428Z,15.47
2018-06-12T01:55:34.255Z,15.33
2018-06-12T01:58:09.768Z,16.07
2018-06-12T02:00:39.553Z,16.23
2018-06-12T02:03:10.044Z,15.93
2018-06-12T02:05:39.490Z,16.23
2018-06-12T02:08:11.446Z,17.00
2018-06-12T02:13:49.186Z,16.60
2018-06-12T02:19:12.934Z,19.00
2018-06-12T02:21:42.263Z,16.30
2018-06-12T02:24:11.637Z,16.40
2018-06-12T02:26:41.154Z,17.80
2018-06-12T02:29:11.990Z,18.07
2018-06-12T02:31:42.410Z,17.80
2018-06-12T02:34:12.287Z,17.73
2018-06-12T02:36:45.305Z,16.57
2018-06-12T02:39:15.994Z,17.37
2018-06-12T02:41:45.564Z,17.70
2018-06-12T02:44:17.675Z,16.03
2018-06-12T02:46:47.431Z,17.40
2018-06-12T02:49:17.059Z,16.87
2018-06-12T02:51:46.843Z,17.00
2018-06-12T02:54:16.451Z,16.90
2018-06-12T02:56:49.663Z,17.80
2018-06-12T02:59:19.723Z,17.07
2018-06-12T03:01:49.896Z,16.43
2018-06-12T03:04:19.612Z,17.60
2018-06-12T03:06:53.177Z,16.70
2018-06-12T03:09:22.863Z,16.30
2018-06-12T03:11:52.530Z,16.80
2018-06-12T03:14:22.101Z,17.20
2018-06-12T03:16:51.853Z,17.80
2018-06-12T03:19:21.162Z,16.17
2018-06-12T03:21:50.823Z,15.93
2018-06-12T03:24:20.249Z,15.60
2018-06-12T03:26:51.740Z,15.53
2018-06-12T03:29:22.300Z,16.10
2018-06-12T03:31:52.944Z,16.10
2018-06-12T03:34:23.005Z,14.80
2018-06-12T03:36:51.961Z,15.50
2018-06-12T03:39:22.320Z,14.63
2018-06-12T03:41:51.718Z,14.77
2018-06-12T03:44:21.136Z,13.70
2018-06-12T03:46:51.000Z,15.10
2018-06-12T03:49:21.100Z,14.87
2018-06-12T03:51:50.574Z,14.30
2018-06-12T03:54:19.991Z,14.20
2018-06-12T03:56:49.450Z,14.03
2018-06-12T03:59:18.757Z,13.63
2018-06-12T04:01:48.199Z,13.57
2018-06-12T04:04:18.180Z,14.10
2018-06-12T04:06:47.701Z,12.80
2018-06-12T04:09:17.013Z,13.57
2018-06-12T04:11:48.539Z,14.77
2018-06-12T04:14:24.464Z,13.93
2018-06-12T04:19:54.803Z,12.97
2018-06-12T04:22:25.826Z,14.03
2018-06-12T04:24:55.918Z,13.87
2018-06-12T04:27:25.253Z,14.00
2018-06-12T04:29:54.685Z,11.70
2018-06-12T04:32:28.855Z,12.93
2018-06-12T04:34:59.602Z,11.43
2018-06-12T04:37:29.972Z,12.87
2018-06-12T04:39:59.795Z,11.67
2018-06-12T04:42:29.310Z,11.70
2018-06-12T04:45:00.659Z,11.47
2018-06-12T04:47:35.467Z,12.00
2018-06-12T04:50:04.887Z,11.30
2018-06-12T04:52:34.145Z,12.40
2018-06-12T04:55:03.437Z,11.77
2018-06-12T04:57:32.822Z,12.00
2018-06-12T05:00:02.516Z,12.80
2018-06-12T05:02:32.011Z,11.30
2018-06-12T05:05:02.045Z,11.17
2018-06-12T05:07:31.349Z,11.07
2018-06-12T05:10:04.244Z,12.70
2018-06-12T05:12:33.657Z,10.63
2018-06-12T05:15:21.981Z,12.00
2018-06-12T05:17:51.591Z,12.27
2018-06-12T05:20:21.705Z,11.33
2018-06-12T05:22:50.962Z,10.10
2018-06-12T05:25:20.373Z,10.80
2018-06-12T05:27:49.768Z,11.30
2018-06-12T05:30:20.312Z,10.33
2018-06-12T05:32:49.748Z,10.90
2018-06-12T05:35:20.233Z,11.17
2018-06-12T05:37:49.559Z,11.53
2018-06-12T05:40:19.428Z,11.37
2018-06-12T05:42:48.856Z,11.07
2018-06-12T05:45:18.694Z,10.30
2018-06-12T05:47:47.929Z,10.87
2018-06-12T05:50:29.585Z,10.80
2018-06-12T05:53:00.046Z,11.70
2018-06-12T05:55:29.481Z,11.90
2018-06-12T05:57:58.795Z,11.63
2018-06-12T06:00:28.064Z,10.33
2018-06-12T06:03:07.721Z,12.70
2018-06-12T06:05:37.037Z,10.60
2018-06-12T06:08:06.605Z,10.93
2018-06-12T06:10:36.199Z,10.60
2018-06-12T06:13:06.310Z,11.20
2018-06-12T06:15:35.659Z,10.67
2018-06-12T06:18:05.184Z,11.37
2018-06-12T06:20:34.741Z,11.23
2018-06-12T06:23:04.225Z,11.10
2018-06-12T06:25:33.528Z,11.70
2018-06-12T06:28:02.954Z,9.50
2018-06-12T06:30:32.277Z,10.07
2018-06-12T06:33:01.758Z,10.50
2018-06-12T06:35:31.228Z,10.00
2018-06-12T06:38:00.641Z,10.50
2018-06-12T06:40:30.093Z,10.80
2018-06-12T06:42:59.818Z,10.83
2018-06-12T06:45:29.232Z,11.13
2018-06-12T06:47:58.801Z,11.20
2018-06-12T06:50:28.089Z,10.80
2018-06-12T06:52:57.654Z,10.77
2018-06-12T06:55:27.043Z,10.20
2018-06-12T06:57:58.506Z,10.10
2018-06-12T07:00:28.112Z,10.30
2018-06-12T07:02:58.381Z,9.90
2018-06-12T07:05:27.682Z,9.70
2018-06-12T07:07:58.080Z,9.37
2018-06-12T07:10:32.646Z,10.07
2018-06-12T07:13:02.575Z,8.80
2018-06-12T07:15:32.154Z,9.70
2018-06-12T07:18:01.613Z,9.80
2018-06-12T07:20:41.971Z,9.97
2018-06-12T07:23:14.820Z,9.43
2018-06-12T07:25:45.532Z,9.97
2018-06-12T07:30:53.790Z,9.40
2018-06-12T07:33:23.069Z,10.37
2018-06-12T07:36:03.776Z,9.87
2018-06-12T07:38:33.073Z,8.93
2018-06-12T07:41:02.300Z,10.00
2018-06-12T07:43:31.591Z,8.90
2018-06-12T07:46:00.910Z,9.57
2018-06-12T07:48:30.169Z,9.77
2018-06-12T07:51:00.603Z,9.70
2018-06-12T07:53:30.051Z,10.17
2018-06-12T07:55:59.647Z,10.77
2018-06-12T07:58:29.547Z,9.90
2018-06-12T08:00:58.863Z,9.40
2018-06-12T08:03:28.148Z,10.67
2018-06-12T08:05:57.422Z,9.00
2018-06-12T08:08:26.847Z,10.10
2018-06-12T08:10:56.113Z,10.47
2018-06-12T08:13:27.106Z,9.43
2018-06-12T08:15:56.498Z,10.40
2018-06-12T08:18:26.020Z,10.10
2018-06-12T08:20:55.644Z,10.50
2018-06-12T08:23:26.173Z,9.80
2018-06-12T08:25:55.690Z,9.97
2018-06-12T08:28:24.911Z,11.43
2018-06-12T08:30:54.195Z,10.00
2018-06-12T08:33:23.468Z,10.57
2018-06-12T08:35:52.787Z,10.77
2018-06-12T08:38:22.726Z,10.70
2018-06-12T08:40:52.317Z,11.13
2018-06-12T08:43:21.994Z,9.50
2018-06-12T08:45:51.405Z,9.50
2018-06-12T08:48:21.173Z,10.03
2018-06-12T08:50:50.499Z,11.67
2018-06-12T08:53:19.768Z,11.00
2018-06-12T08:55:49.107Z,9.40
2018-06-12T08:58:18.725Z,11.13
2018-06-12T09:00:48.150Z,11.30
2018-06-12T09:03:17.398Z,10.83
2018-06-12T09:05:46.661Z,11.53
2018-06-12T09:08:16.617Z,11.20
2018-06-12T09:10:45.957Z,11.03
2018-06-12T09:13:15.422Z,11.80
2018-06-12T09:15:44.652Z,12.23
2018-06-12T09:18:13.932Z,11.00
2018-06-12T09:20:43.322Z,10.30
2018-06-12T09:23:12.587Z,10.70
2018-06-12T09:25:41.911Z,11.27
2018-06-12T09:28:11.418Z,11.67
2018-06-12T09:30:40.717Z,11.33
2018-06-12T09:33:10.142Z,12.83
2018-06-12T09:35:39.341Z,11.27
2018-06-12T09:38:08.651Z,11.27
2018-06-12T09:40:37.981Z,11.20
2018-06-12T09:43:07.255Z,10.90
2018-06-12T09:45:36.483Z,12.00
2018-06-12T09:48:05.740Z,12.20
2018-06-12T09:50:34.937Z,10.50
2018-06-12T09:53:04.209Z,12.20
2018-06-12T09:55:33.537Z,10.87
2018-06-12T09:58:03.050Z,11.57
2018-06-12T10:00:38.589Z,11.00
2018-06-12T10:03:07.914Z,12.47
2018-06-12T10:05:37.173Z,11.67
2018-06-12T10:08:06.574Z,11.90
2018-06-12T10:10:35.865Z,11.47
2018-06-12T10:13:05.836Z,11.80
2018-06-12T10:15:35.159Z,13.27
2018-06-12T10:18:04.506Z,12.70
2018-06-12T10:20:34.155Z,12.10
2018-06-12T10:23:03.401Z,11.30
2018-06-12T10:25:32.687Z,11.40
2018-06-12T10:28:01.968Z,14.00
2018-06-12T10:30:31.452Z,13.20
2018-06-12T10:33:00.844Z,12.63
2018-06-12T10:35:30.083Z,13.50
2018-06-12T10:37:59.484Z,12.87
2018-06-12T10:40:28.846Z,12.27
2018-06-12T10:42:58.638Z,12.30
2018-06-12T10:45:29.650Z,11.20
2018-06-12T10:47:59.542Z,13.37
2018-06-12T10:50:29.021Z,12.20
2018-06-12T10:52:58.363Z,12.07
2018-06-12T10:55:27.658Z,13.07
2018-06-12T10:57:57.174Z,11.47
2018-06-12T11:00:26.712Z,12.50
2018-06-12T11:02:56.429Z,12.40
2018-06-12T11:05:26.073Z,11.87
2018-06-12T11:07:55.490Z,11.90
2018-06-12T11:10:24.824Z,11.60
2018-06-12T11:12:54.315Z,12.07
2018-06-12T11:15:24.134Z,11.40
2018-06-12T11:17:53.350Z,11.70
2018-06-12T11:20:22.802Z,12.57
2018-06-12T11:22:52.242Z,13.10
2018-06-12T11:25:21.504Z,11.13
2018-06-12T11:28:08.830Z,12.10
2018-06-12T11:30:38.229Z,13.90
2018-06-12T11:33:07.630Z,12.23
2018-06-12T11:35:37.066Z,13.77
2018-06-12T11:38:07.098Z,11.90
2018-06-12T11:40:36.425Z,15.60
2018-06-12T11:43:06.025Z,12.67
2018-06-12T11:45:35.600Z,13.00
2018-06-12T11:48:05.567Z,13.40
2018-06-12T11:50:34.877Z,11.10
2018-06-12T11:53:04.611Z,14.83
2018-06-12T11:55:35.033Z,11.00
2018-06-12T11:58:04.588Z,10.73
2018-06-12T12:00:33.873Z,11.23
2018-06-12T12:03:03.254Z,13.80
2018-06-12T12:05:32.541Z,11.47
2018-06-12T12:08:01.998Z,12.50
2018-06-12T12:10:32.198Z,13.80
2018-06-12T12:13:01.514Z,10.63
2018-06-12T12:15:30.781Z,13.97
2018-06-12T12:18:00.321Z,12.30
2018-06-12T12:20:29.656Z,11.43
2018-06-12T12:22:58.965Z,13.10
2018-06-12T12:25:28.226Z,12.10
2018-06-12T12:27:57.506Z,12.03
2018-06-12T12:30:26.803Z,8.90
2018-06-12T12:32:56.915Z,10.30
2018-06-12T12:35:26.301Z,9.33
2018-06-12T12:37:55.607Z,7.57
2018-06-12T12:40:24.716Z,7.83
2018-06-12T12:42:53.957Z,7.60
2018-06-12T12:45:46.749Z,6.67
2018-06-12T12:48:16.005Z,7.40
2018-06-12T12:50:45.278Z,7.70
2018-06-12T12:53:15.405Z,7.27
2018-06-12T12:55:44.988Z,8.90
2018-06-12T12:58:14.677Z,6.80
2018-06-12T13:00:44.688Z,5.93
2018-06-12T13:03:13.932Z,7.17
2018-06-12T13:05:43.183Z,7.03
2018-06-12T13:08:12.417Z,6.87
2018-06-12T13:10:41.719Z,6.70
2018-06-12T13:13:10.964Z,5.77
2018-06-12T13:15:40.248Z,6.63
2018-06-12T13:18:09.544Z,6.53
2018-06-12T13:20:38.933Z,5.73
2018-06-12T13:23:08.492Z,5.57
2018-06-12T13:25:38.040Z,6.53
2018-06-12T13:28:07.380Z,7.07
2018-06-12T13:30:36.711Z,6.10
2018-06-12T13:33:05.989Z,5.60
2018-06-12T13:35:35.336Z,5.77
2018-06-12T13:38:04.642Z,5.23
2018-06-12T13:40:33.863Z,5.73
2018-06-12T13:43:03.942Z,5.70
2018-06-12T13:45:33.229Z,5.13
2018-06-12T13:48:02.805Z,5.07
2018-06-12T13:50:32.175Z,4.80
2018-06-12T13:53:01.597Z,5.50
2018-06-12T13:55:30.833Z,4.97
2018-06-12T13:58:00.113Z,4.57
2018-06-12T14:00:29.866Z,5.20
2018-06-12T14:02:59.225Z,5.63
2018-06-12T14:05:28.492Z,6.47
2018-06-12T14:07:57.906Z,6.63
2018-06-12T14:10:27.334Z,6.00
2018-06-12T14:12:56.933Z,4.10
2018-06-12T14:15:30.870Z,4.10
2018-06-12T14:18:00.385Z,4.73
2018-06-12T14:20:29.697Z,5.77
2018-06-12T14:23:03.913Z,5.60
2018-06-12T14:25:33.284Z,4.73
2018-06-12T14:28:02.625Z,4.90
2018-06-12T14:30:38.782Z,5.10
2018-06-12T14:33:08.085Z,4.17
2018-06-12T14:35:39.443Z,4.50
2018-06-12T14:38:08.888Z,4.57
2018-06-12T14:40:38.170Z,3.93
2018-06-12T14:43:07.984Z,3.90
2018-06-12T14:45:37.810Z,3.73
2018-06-12T14:48:15.004Z,3.90
2018-06-12T14:50:44.278Z,4.33
2018-06-12T14:53:14.176Z,4.00
2018-06-12T14:55:43.690Z,5.30
2018-06-12T14:58:13.288Z,5.80
2018-06-12T15:00:42.730Z,5.80
2018-06-12T15:03:12.455Z,6.60
2018-06-12T15:05:43.367Z,6.23
2018-06-12T15:08:12.961Z,6.27
2018-06-12T15:10:42.561Z,5.73
2018-06-12T15:13:12.768Z,5.60
2018-06-12T15:15:42.777Z,5.90
2018-06-12T15:18:12.598Z,6.20
2018-06-12T15:20:42.349Z,7.47
2018-06-12T15:23:11.883Z,5.77
2018-06-12T15:25:46.823Z,5.53
2018-06-12T15:28:16.106Z,5.10
2018-06-12T15:30:46.025Z,5.47
2018-06-12T15:33:16.230Z,5.70
2018-06-12T15:35:46.070Z,6.53
2018-06-12T15:38:15.693Z,5.60
2018-06-12T15:40:45.039Z,5.23
2018-06-12T15:43:14.461Z,6.20
2018-06-12T15:45:43.856Z,5.67
2018-06-12T15:48:14.343Z,6.33
2018-06-12T15:50:43.850Z,5.10
2018-06-12T15:53:18.386Z,5.67
2018-06-12T15:55:48.177Z,5.67
2018-06-12T15:58:17.825Z,6.17
2018-06-12T16:00:49.069Z,5.70
2018-06-12T16:03:20.093Z,5.50
2018-06-12T16:06:02.088Z,5.90
2018-06-12T16:08:39.443Z,5.20
2018-06-12T16:11:11.183Z,5.97
2018-06-12T16:13:41.893Z,5.20
2018-06-12T16:16:13.434Z,4.97
2018-06-12T16:18:54.349Z,5.17
2018-06-12T16:21:31.616Z,4.47
2018-06-12T16:24:13.224Z,4.60
2018-06-12T16:26:44.787Z,4.60
2018-06-12T16:29:16.755Z,5.90
2018-06-12T16:31:46.586Z,4.17
2018-06-12T16:34:16.169Z,4.17
2018-06-12T16:36:47.721Z,4.20
2018-06-12T16:39:17.425Z,4.30
2018-06-12T16:41:48.422Z,4.73
2018-06-12T16:44:18.526Z,4.17
2018-06-12T16:46:49.366Z,3.77
2018-06-12T16:49:21.304Z,4.57
2018-06-12T16:51:50.967Z,4.60
2018-06-12T16:54:21.483Z,4.87
2018-06-12T16:56:51.479Z,4.57
2018-06-12T16:59:22.085Z,3.67
2018-06-12T17:01:51.536Z,3.67
2018-06-12T17:04:22.733Z,4.30
2018-06-12T17:06:53.756Z,5.00
2018-06-12T17:09:23.260Z,4.03
2018-06-12T17:11:56.042Z,4.37
2018-06-12T17:17:23.424Z,4.40
2018-06-12T17:20:09.843Z,4.73
2018-06-12T17:22:41.076Z,4.47
2018-06-12T17:25:18.321Z,4.67
2018-06-12T17:27:48.333Z,4.53
2018-06-12T17:30:18.220Z,4.80
2018-06-12T17:32:48.658Z,4.20
2018-06-12T17:35:19.054Z,3.97
2018-06-12T17:37:50.648Z,4.40
2018-06-12T17:40:20.370Z,4.33
2018-06-12T17:42:57.583Z,4.50
2018-06-12T17:45:28.136Z,4.37
2018-06-12T17:48:07.448Z,4.03
2018-06-12T17:50:37.435Z,4.30
2018-06-12T17:53:07.150Z,4.53
2018-06-12T17:55:36.555Z,4.30
2018-06-12T17:58:06.676Z,4.63
2018-06-12T18:00:36.629Z,4.20
2018-06-12T18:03:06.517Z,4.57
2018-06-12T18:05:36.062Z,4.47
2018-06-12T18:08:11.241Z,5.47
2018-06-12T18:10:41.302Z,6.73
2018-06-12T18:13:12.161Z,4.80
2018-06-12T18:15:44.437Z,4.70
2018-06-12T18:18:14.594Z,4.53
2018-06-12T18:20:51.053Z,5.13
2018-06-12T18:23:22.670Z,4.60
2018-06-12T18:25:52.756Z,6.00
2018-06-12T18:28:23.442Z,5.97
2018-06-12T18:30:53.011Z,5.77
2018-06-12T18:33:23.376Z,5.40
2018-06-12T18:35:53.323Z,5.70
2018-06-12T18:38:23.597Z,6.17
2018-06-12T18:41:11.517Z,5.63
2018-06-12T18:43:41.787Z,6.00
2018-06-12T18:46:16.484Z,6.37
2018-06-12T18:48:46.597Z,7.13
2018-06-12T18:51:16.963Z,5.60
2018-06-12T18:53:47.684Z,5.70
2018-06-12T18:56:17.554Z,6.90
2018-06-12T18:59:01.804Z,6.33
2018-06-12T19:01:33.363Z,6.20
2018-06-12T19:04:03.798Z,5.80
2018-06-12T19:06:35.107Z,5.60
2018-06-12T19:09:06.843Z,6.60
2018-06-12T19:11:37.257Z,6.53
2018-06-12T19:14:08.719Z,5.90
2018-06-12T19:16:42.367Z,6.10
2018-06-12T19:19:13.099Z,6.10
2018-06-12T19:21:43.715Z,6.92
2018-06-12T19:24:15.596Z,6.30
2018-06-12T19:26:45.679Z,5.60
2018-06-12T19:29:15.619Z,6.40
2018-06-12T19:31:46.464Z,6.10
2018-06-12T19:34:17.740Z,6.00
2018-06-12T19:36:47.961Z,5.80
2018-06-12T19:39:17.872Z,5.57
2018-06-12T19:41:47.625Z,5.47
2018-06-12T19:44:22.888Z,6.07
2018-06-12T19:46:52.726Z,6.57
2018-06-12T19:49:23.568Z,6.27
2018-06-12T19:51:53.193Z,7.60
2018-06-12T19:54:22.932Z,5.83
2018-06-12T19:56:53.539Z,6.77
2018-06-12T19:59:24.414Z,6.40
2018-06-12T20:01:55.234Z,6.90
2018-06-12T20:04:25.338Z,5.03
2018-06-12T20:06:59.309Z,7.40
2018-06-12T20:09:29.098Z,4.83
2018-06-12T20:12:00.363Z,5.20
2018-06-12T20:14:29.864Z,5.70
2018-06-12T20:17:04.350Z,4.83
2018-06-12T20:19:34.732Z,5.37
2018-06-12T20:22:21.516Z,5.23
2018-06-12T20:24:51.159Z,4.83
2018-06-12T20:27:22.394Z,4.77
2018-06-12T20:29:56.032Z,5.27
2018-06-12T20:32:26.400Z,4.57
2018-06-12T20:34:56.086Z,4.70
2018-06-12T20:37:33.161Z,4.40
2018-06-12T20:40:05.409Z,4.90
2018-06-12T20:42:37.049Z,5.53
2018-06-12T20:45:11.709Z,4.77
2018-06-12T20:47:41.624Z,5.57
2018-06-12T20:50:12.160Z,5.53
2018-06-12T20:52:46.754Z,4.83
2018-06-12T20:55:16.082Z,7.17
2018-06-12T20:57:47.617Z,5.40
2018-06-12T21:00:17.251Z,6.10
2018-06-12T21:02:52.954Z,4.83
2018-06-12T21:05:23.460Z,4.90
2018-06-12T21:07:53.267Z,5.10
2018-06-12T21:10:23.500Z,5.47
2018-06-12T21:12:53.786Z,5.23
2018-06-12T21:15:23.211Z,5.00
2018-06-12T21:17:52.713Z,6.10
2018-06-12T21:20:45.373Z,6.33
2018-06-12T21:23:14.669Z,5.27
2018-06-12T21:25:44.237Z,6.20
2018-06-12T21:28:13.751Z,5.70
2018-06-12T21:30:44.897Z,5.23
2018-06-12T21:33:15.525Z,6.20
2018-06-12T21:35:44.866Z,6.40
2018-06-12T21:38:14.239Z,6.03
2018-06-12T21:40:44.071Z,6.90
2018-06-12T21:43:13.543Z,5.23
2018-06-12T21:45:42.867Z,5.30
2018-06-12T21:48:12.422Z,5.77
2018-06-12T21:50:42.092Z,5.53
2018-06-12T21:53:11.473Z,5.60
2018-06-12T21:55:43.180Z,5.67
2018-06-12T21:58:13.060Z,6.03
2018-06-12T22:00:52.881Z,5.40
2018-06-12T22:03:22.331Z,6.30
2018-06-12T22:05:55.216Z,6.37
2018-06-12T22:08:25.231Z,5.50
2018-06-12T22:10:54.618Z,6.53
2018-06-12T22:13:24.235Z,5.13
2018-06-12T22:15:53.684Z,6.10
2018-06-12T22:18:23.334Z,6.47
2018-06-12T22:21:02.407Z,5.60
2018-06-12T22:23:31.967Z,5.67
2018-06-12T22:26:01.343Z,5.17
2018-06-12T22:28:31.080Z,4.90
2018-06-12T22:31:12.192Z,6.23
2018-06-12T22:33:42.112Z,5.73
2018-06-12T22:36:11.966Z,5.10
2018-06-12T22:38:41.725Z,5.93
2018-06-12T22:41:11.351Z,5.30
2018-06-12T22:43:40.574Z,4.67
2018-06-12T22:46:10.186Z,5.73
2018-06-12T22:48:39.423Z,5.53
2018-06-12T22:51:08.795Z,5.40
2018-06-12T22:53:38.323Z,4.83
2018-06-12T22:56:07.788Z,5.87
2018-06-12T22:58:37.369Z,5.50
2018-06-12T23:01:18.901Z,6.50
2018-06-12T23:03:48.181Z,5.70
2018-06-12T23:06:17.477Z,5.53
2018-06-12T23:08:46.858Z,5.47
2018-06-12T23:11:16.096Z,5.97
2018-06-12T23:13:45.852Z,6.80
2018-06-12T23:16:15.645Z,6.20
2018-06-12T23:18:45.153Z,6.13
2018-06-12T23:21:25.467Z,6.40
2018-06-12T23:23:58.135Z,7.00
2018-06-12T23:26:27.723Z,6.60
2018-06-12T23:28:57.329Z,7.77
2018-06-12T23:31:26.199Z,8.03
2018-06-12T23:33:56.583Z,7.03
2018-06-12T23:36:26.336Z,8.77
2018-06-12T23:38:55.734Z,8.13
2018-06-12T23:41:24.751Z,7.43
2018-06-12T23:43:55.022Z,7.93
2018-06-12T23:46:25.582Z,7.30
2018-06-12T23:48:59.371Z,7.10
2018-06-12T23:51:28.596Z,7.60
2018-06-12T23:53:57.832Z,7.87
2018-06-12T23:56:27.805Z,7.73
2018-06-12T23:58:57.299Z,9.20
